Time;durP1;ratioP1;P1;durP2;ratioP2;P2;SDS_P1;SDS_P2;PMS_P1;PMS_P2;Temp;Humidity;BMP_temperature;BMP_pressure;BME280_temperature;BME280_humidity;BME280_pressure;Samples;Min_cycle;Max_cycle;Signal;HPM_P1;HPM_P2
2021/12/19 00:01:16;;;;;;;42.10;21.37;;;2.30;99.90;;;;;;4842829;29;20458;-94
2021/12/19 00:09:12;;;;;;;42.90;20.40;;;2.60;99.90;;;;;;4865135;29;20473;-94
2021/12/19 00:11:38;;;;;;;43.03;20.67;;;2.50;99.90;;;;;;4849831;29;20465;-94
2021/12/19 00:14:05;;;;;;;39.83;20.03;;;2.60;99.90;;;;;;4851160;29;20494;-93
2021/12/19 00:16:33;;;;;;;36.43;19.53;;;2.40;99.90;;;;;;4850991;29;20442;-94
2021/12/19 00:19:02;;;;;;;39.33;20.60;;;2.40;99.90;;;;;;4850397;29;20453;-94
2021/12/19 00:21:27;;;;;;;37.87;20.33;;;2.40;99.90;;;;;;4851866;29;20451;-92
2021/12/19 00:23:54;;;;;;;40.17;20.63;;;2.40;99.90;;;;;;4864432;29;20501;-93
2021/12/19 00:26:19;;;;;;;42.77;21.53;;;2.40;99.90;;;;;;4848518;29;20295;-92
2021/12/19 00:28:47;;;;;;;42.60;20.37;;;2.40;99.90;;;;;;4859202;29;20543;-93
2021/12/19 00:31:13;;;;;;;40.70;20.93;;;2.50;99.90;;;;;;4851591;29;20369;-93
2021/12/19 00:33:40;;;;;;;39.60;20.90;;;2.40;99.90;;;;;;4864936;29;20509;-92
2021/12/19 00:36:07;;;;;;;43.90;21.70;;;2.50;99.90;;;;;;4848831;29;20538;-93
2021/12/19 00:38:33;;;;;;;41.53;20.80;;;2.50;99.90;;;;;;4849486;29;21144;-93
2021/12/19 00:41:00;;;;;;;49.03;23.33;;;2.30;99.90;;;;;;4853051;29;20449;-92
2021/12/19 00:43:36;;;;;;;48.50;22.07;;;2.20;99.90;;;;;;4866002;29;20443;-93
2021/12/19 00:46:07;;;;;;;47.40;22.23;;;2.10;99.90;;;;;;4846130;29;20544;-93
2021/12/19 00:48:42;;;;;;;45.50;21.73;;;2.10;99.90;;;;;;4837417;29;20461;-93
2021/12/19 00:51:10;;;;;;;43.80;20.70;;;2.10;99.90;;;;;;4853741;29;20985;-92
2021/12/19 00:53:37;;;;;;;38.93;19.40;;;2.20;99.90;;;;;;4848585;29;20523;-93
2021/12/19 00:56:03;;;;;;;42.60;19.93;;;2.20;99.90;;;;;;4858872;29;21180;-93
2021/12/19 00:58:29;;;;;;;48.53;21.43;;;2.30;99.90;;;;;;4844440;29;20470;-92
2021/12/19 01:00:55;;;;;;;42.07;18.97;;;2.50;99.90;;;;;;4861286;29;20450;-92
2021/12/19 01:03:21;;;;;;;40.17;20.17;;;2.50;99.90;;;;;;4837230;29;20273;-92
2021/12/19 01:05:48;;;;;;;41.37;21.63;;;2.50;99.90;;;;;;4833375;29;20469;-92
2021/12/19 01:08:14;;;;;;;42.67;20.33;;;2.50;99.90;;;;;;4849482;29;20501;-92
2021/12/19 01:10:42;;;;;;;43.27;22.03;;;2.50;99.90;;;;;;4846557;29;20445;-92
2021/12/19 01:13:08;;;;;;;46.37;21.70;;;2.40;99.90;;;;;;4861406;29;20190;-93
2021/12/19 01:15:34;;;;;;;41.43;21.57;;;2.30;99.90;;;;;;4862588;29;20497;-93
2021/12/19 01:18:00;;;;;;;43.57;21.80;;;2.40;99.90;;;;;;4856475;29;20544;-93
2021/12/19 01:20:28;;;;;;;43.97;22.37;;;2.30;99.90;;;;;;4850960;29;20546;-92
2021/12/19 01:22:54;;;;;;;45.50;22.50;;;2.20;99.90;;;;;;4850426;29;20300;-95
2021/12/19 01:25:21;;;;;;;50.37;23.33;;;2.10;99.90;;;;;;4848436;29;20452;-93
2021/12/19 01:27:47;;;;;;;44.20;22.60;;;2.10;99.90;;;;;;4843553;29;20447;-93
2021/12/19 01:30:13;;;;;;;44.40;21.60;;;2.20;99.90;;;;;;4860071;29;20477;-93
2021/12/19 01:32:52;;;;;;;43.70;23.37;;;2.20;99.90;;;;;;4842615;29;20504;-94
2021/12/19 01:35:20;;;;;;;42.60;21.70;;;2.20;99.90;;;;;;4847503;29;20836;-92
2021/12/19 01:37:50;;;;;;;48.33;23.50;;;2.20;99.90;;;;;;4843555;29;20462;-92
2021/12/19 01:40:19;;;;;;;40.93;21.57;;;2.20;99.90;;;;;;4845418;29;20481;-92
2021/12/19 01:42:50;;;;;;;46.07;22.50;;;2.20;99.90;;;;;;4858065;29;20532;-92
2021/12/19 01:45:27;;;;;;;44.27;21.37;;;2.30;99.90;;;;;;4846139;29;20865;-93
2021/12/19 01:47:53;;;;;;;41.53;20.00;;;2.30;99.90;;;;;;4861105;29;20469;-93
2021/12/19 01:50:19;;;;;;;38.93;20.27;;;2.20;99.90;;;;;;4859784;29;20508;-92
2021/12/19 01:52:57;;;;;;;43.20;20.50;;;2.10;99.90;;;;;;4844569;29;20461;-93
2021/12/19 01:55:22;;;;;;;39.10;20.53;;;2.10;99.90;;;;;;4848084;29;20548;-93
2021/12/19 01:57:54;;;;;;;39.67;19.00;;;2.20;99.90;;;;;;4848350;29;20451;-93
2021/12/19 02:00:33;;;;;;;42.17;21.80;;;2.00;99.90;;;;;;4843912;29;20212;-94
2021/12/19 02:02:59;;;;;;;46.50;20.13;;;1.90;99.90;;;;;;4847440;29;20532;-95
2021/12/19 02:05:26;;;;;;;42.47;19.20;;;2.00;99.90;;;;;;4862343;29;20444;-93
2021/12/19 02:07:53;;;;;;;45.43;17.50;;;2.00;99.90;;;;;;4858739;29;20449;-91
2021/12/19 02:10:25;;;;;;;40.23;18.47;;;2.00;99.90;;;;;;4857365;29;20476;-93
2021/12/19 02:12:52;;;;;;;45.07;19.67;;;2.00;99.90;;;;;;4850581;29;20474;-93
2021/12/19 02:15:21;;;;;;;42.33;19.63;;;1.90;99.90;;;;;;4839583;29;20494;-92
2021/12/19 02:17:49;;;;;;;50.83;21.57;;;2.00;99.90;;;;;;4855685;29;20463;-92
2021/12/19 02:20:19;;;;;;;46.37;22.40;;;2.10;99.90;;;;;;4836087;29;20448;-93
2021/12/19 02:22:45;;;;;;;54.60;23.57;;;1.90;99.90;;;;;;4855186;29;20455;-93
2021/12/19 02:25:11;;;;;;;57.90;23.10;;;1.80;99.90;;;;;;4838083;29;20450;-93
2021/12/19 02:27:37;;;;;;;50.80;22.20;;;1.70;99.90;;;;;;4852674;29;20447;-92
2021/12/19 02:30:07;;;;;;;65.60;26.73;;;1.70;99.90;;;;;;4835991;29;20924;-92
2021/12/19 02:32:35;;;;;;;57.80;23.50;;;1.70;99.90;;;;;;4848957;29;20527;-92
2021/12/19 02:35:06;;;;;;;57.73;24.10;;;1.80;99.90;;;;;;4833363;29;20513;-93
2021/12/19 02:37:57;;;;;;;58.87;22.87;;;1.80;99.90;;;;;;4853992;29;20481;-92
2021/12/19 02:48:14;;;;;;;40.73;18.73;;;1.80;99.90;;;;;;4851078;29;20462;-94
2021/12/19 02:50:51;;;;;;;48.53;20.90;;;1.90;99.90;;;;;;4840977;29;20460;-94
2021/12/19 02:53:26;;;;;;;43.07;20.17;;;2.00;99.90;;;;;;4856150;29;20482;-93
2021/12/19 02:55:52;;;;;;;42.70;20.30;;;1.90;99.90;;;;;;4858515;29;20475;-92
2021/12/19 02:58:20;;;;;;;47.60;18.40;;;1.90;99.90;;;;;;4865029;29;20536;-92
2021/12/19 03:00:46;;;;;;;40.60;17.90;;;1.90;99.90;;;;;;4849845;29;20202;-92
2021/12/19 03:03:11;;;;;;;38.40;17.50;;;1.80;99.90;;;;;;4866442;29;20459;-93
2021/12/19 03:05:37;;;;;;;41.57;17.20;;;1.80;99.90;;;;;;4847515;29;20667;-93
2021/12/19 03:08:04;;;;;;;38.43;17.47;;;1.70;99.90;;;;;;4852635;29;20192;-93
2021/12/19 03:11:04;;;;;;;40.43;18.70;;;1.70;99.90;;;;;;4850850;29;20546;-93
2021/12/19 03:18:48;;;;;;;33.80;15.60;;;2.00;99.90;;;;;;4859843;29;20449;-93
2021/12/19 03:21:16;;;;;;;33.73;14.47;;;1.90;99.90;;;;;;4843411;29;21236;-93
2021/12/19 03:23:42;;;;;;;37.20;14.93;;;1.90;99.90;;;;;;4858863;29;20204;-93
2021/12/19 03:26:08;;;;;;;30.17;14.73;;;1.80;99.90;;;;;;4844920;29;20451;-93
2021/12/19 03:28:34;;;;;;;30.27;13.20;;;1.80;99.90;;;;;;4843954;29;20743;-93
2021/12/19 03:31:02;;;;;;;29.97;13.47;;;1.80;99.90;;;;;;4841493;29;20544;-91
2021/12/19 03:33:30;;;;;;;32.60;14.37;;;1.80;99.90;;;;;;4856113;29;20630;-93
2021/12/19 03:35:56;;;;;;;31.23;14.07;;;1.80;99.90;;;;;;4841854;29;20491;-94
2021/12/19 03:38:21;;;;;;;29.10;13.47;;;1.80;99.90;;;;;;4857392;29;21390;-93
2021/12/19 03:41:08;;;;;;;32.07;15.20;;;1.80;99.90;;;;;;4861965;29;20291;-93
2021/12/19 03:43:39;;;;;;;31.27;14.80;;;1.90;99.90;;;;;;4856423;29;20201;-93
2021/12/19 03:46:07;;;;;;;40.60;17.30;;;1.90;99.90;;;;;;4856570;29;20468;-93
2021/12/19 03:48:32;;;;;;;39.70;15.63;;;1.90;99.90;;;;;;4854724;29;20897;-93
2021/12/19 03:51:00;;;;;;;37.37;14.57;;;1.80;99.90;;;;;;4842365;29;20461;-93
2021/12/19 03:53:26;;;;;;;29.60;13.53;;;1.80;99.90;;;;;;4845991;29;20560;-93
2021/12/19 03:55:52;;;;;;;40.40;16.07;;;1.90;99.90;;;;;;4839898;29;21046;-92
2021/12/19 03:58:19;;;;;;;34.47;14.87;;;1.80;99.90;;;;;;4853447;29;20200;-92
2021/12/19 04:00:46;;;;;;;30.77;12.70;;;1.90;99.90;;;;;;4854023;29;20978;-92
2021/12/19 04:03:18;;;;;;;35.73;14.93;;;1.90;99.90;;;;;;4839438;29;20471;-91
2021/12/19 04:05:45;;;;;;;30.83;13.60;;;1.90;99.90;;;;;;4840977;29;20961;-92
2021/12/19 04:08:21;;;;;;;29.67;13.73;;;1.90;99.90;;;;;;4838953;29;21035;-92
2021/12/19 04:10:49;;;;;;;24.87;11.43;;;1.80;99.90;;;;;;4857031;29;20458;-92
2021/12/19 04:13:16;;;;;;;28.80;13.50;;;1.80;99.90;;;;;;4858109;29;20448;-92
2021/12/19 04:15:42;;;;;;;31.70;15.30;;;1.80;99.90;;;;;;4839485;29;20488;-92
2021/12/19 04:18:10;;;;;;;28.60;13.90;;;1.80;99.90;;;;;;4850172;29;20514;-92
2021/12/19 04:20:36;;;;;;;34.00;14.40;;;1.90;99.90;;;;;;4853198;29;20460;-92
2021/12/19 04:23:03;;;;;;;33.53;15.00;;;1.90;99.90;;;;;;4840093;29;21301;-91
2021/12/19 04:25:29;;;;;;;24.60;11.93;;;1.80;99.90;;;;;;4853109;29;20239;-92
2021/12/19 04:27:55;;;;;;;32.83;14.10;;;1.80;99.90;;;;;;4855485;29;20570;-92
2021/12/19 04:30:26;;;;;;;29.07;12.30;;;1.80;99.90;;;;;;4841254;29;20199;-93
2021/12/19 04:33:03;;;;;;;29.67;13.80;;;1.60;99.90;;;;;;4837412;29;20290;-93
2021/12/19 04:35:32;;;;;;;25.00;11.67;;;1.60;99.90;;;;;;4834939;29;20502;-92
2021/12/19 04:41:47;;;;;;;28.47;13.07;;;1.60;99.90;;;;;;4849982;29;20511;-92
2021/12/19 05:02:33;;;;;;;36.07;13.20;;;1.50;99.90;;;;;;4851904;29;20587;-92
2021/12/19 05:15:52;;;;;;;34.33;13.37;;;1.30;99.90;;;;;;4836728;29;20842;-92
2021/12/19 05:18:22;;;;;;;38.10;15.97;;;1.40;99.90;;;;;;4835174;29;20455;-92
2021/12/19 05:21:05;;;;;;;44.10;15.30;;;1.40;99.90;;;;;;4833851;29;20497;-93
2021/12/19 05:25:59;;;;;;;30.13;10.93;;;1.40;99.90;;;;;;4855158;29;20822;-93
2021/12/19 05:28:25;;;;;;;26.27;10.40;;;1.30;99.90;;;;;;4841180;29;20458;-93
2021/12/19 05:30:54;;;;;;;25.20;11.10;;;1.30;99.90;;;;;;4840393;29;20466;-92
2021/12/19 05:33:23;;;;;;;28.43;11.60;;;1.20;99.90;;;;;;4838744;29;20546;-93
2021/12/19 05:46:42;;;;;;;38.77;15.30;;;1.40;99.90;;;;;;4852601;29;20507;-92
2021/12/19 05:49:10;;;;;;;45.57;15.70;;;1.30;99.90;;;;;;4835906;29;20460;-92
2021/12/19 05:51:41;;;;;;;39.50;15.87;;;1.40;99.90;;;;;;4835253;29;20958;-91
2021/12/19 05:54:09;;;;;;;37.00;15.10;;;1.40;99.90;;;;;;4836845;29;20220;-92
2021/12/19 05:56:43;;;;;;;44.27;16.93;;;1.40;99.90;;;;;;4849700;29;20897;-90
2021/12/19 05:59:12;;;;;;;32.17;13.60;;;1.40;99.90;;;;;;4841105;29;20536;-92
2021/12/19 06:01:42;;;;;;;38.60;14.40;;;1.50;99.90;;;;;;4834080;29;20981;-91
2021/12/19 06:04:09;;;;;;;38.10;14.90;;;1.30;99.90;;;;;;4838505;29;20455;-92
2021/12/19 06:06:40;;;;;;;29.90;12.33;;;1.30;99.90;;;;;;4853692;29;21300;-92
2021/12/19 06:09:05;;;;;;;36.10;12.00;;;1.30;99.90;;;;;;4838469;29;20460;-92
2021/12/19 06:11:33;;;;;;;28.77;12.60;;;1.30;99.90;;;;;;4841687;29;20506;-92
2021/12/19 06:14:08;;;;;;;31.97;13.87;;;1.30;99.90;;;;;;4835712;29;20476;-93
2021/12/19 06:16:41;;;;;;;30.63;13.30;;;1.20;99.90;;;;;;4851121;29;20454;-91
2021/12/19 06:19:07;;;;;;;35.97;15.27;;;1.30;99.90;;;;;;4853190;29;20509;-92
2021/12/19 06:21:35;;;;;;;33.37;13.73;;;1.40;99.90;;;;;;4837213;29;20484;-94
2021/12/19 06:24:00;;;;;;;33.07;13.63;;;1.30;99.90;;;;;;4856757;29;20220;-92
2021/12/19 06:26:35;;;;;;;33.50;14.47;;;1.30;99.90;;;;;;4858747;29;20442;-93
2021/12/19 06:29:05;;;;;;;38.80;14.83;;;1.40;99.90;;;;;;4866374;29;20481;-93
2021/12/19 06:31:33;;;;;;;32.43;14.53;;;1.40;99.90;;;;;;4843561;29;21283;-93
2021/12/19 06:34:00;;;;;;;31.57;14.63;;;1.40;99.90;;;;;;4851373;29;21290;-92
2021/12/19 06:36:29;;;;;;;33.33;13.60;;;1.40;99.90;;;;;;4847389;29;20605;-93
2021/12/19 06:38:54;;;;;;;29.77;12.30;;;1.40;99.90;;;;;;4845329;29;20510;-93
2021/12/19 06:41:21;;;;;;;29.33;12.63;;;1.30;99.90;;;;;;4859247;29;20474;-92
2021/12/19 06:43:47;;;;;;;28.77;11.40;;;1.20;99.90;;;;;;4857569;29;20319;-92
2021/12/19 06:46:13;;;;;;;24.30;10.33;;;1.20;99.90;;;;;;4843736;29;20584;-92
2021/12/19 06:48:39;;;;;;;24.23;11.40;;;1.20;99.90;;;;;;4845778;29;20193;-92
2021/12/19 06:51:07;;;;;;;25.47;12.03;;;1.20;99.90;;;;;;4843165;29;20814;-92
2021/12/19 06:53:32;;;;;;;22.03;9.60;;;1.20;99.90;;;;;;4857944;29;20194;-93
2021/12/19 06:56:01;;;;;;;22.20;10.00;;;1.20;99.90;;;;;;4841692;29;20838;-92
2021/12/19 06:58:29;;;;;;;27.73;10.37;;;1.30;99.90;;;;;;4862477;29;20293;-93
2021/12/19 07:00:55;;;;;;;22.70;9.03;;;1.30;99.90;;;;;;4859249;29;20471;-92
2021/12/19 07:03:23;;;;;;;21.77;9.60;;;1.20;99.90;;;;;;4848872;29;20511;-92
2021/12/19 07:05:50;;;;;;;32.17;12.00;;;1.20;99.90;;;;;;4859389;29;20202;-92
2021/12/19 07:13:25;;;;;;;22.97;11.63;;;1.20;99.90;;;;;;4857186;29;20489;-93
2021/12/19 07:15:53;;;;;;;25.90;11.13;;;1.20;99.90;;;;;;4861506;29;25022;-94
2021/12/19 07:18:19;;;;;;;21.93;10.30;;;1.10;99.90;;;;;;4837356;29;20190;-88
2021/12/19 07:21:06;;;;;;;26.87;10.73;;;1.10;99.90;;;;;;4856699;29;20499;-94
2021/12/19 07:23:32;;;;;;;25.40;9.80;;;1.20;99.90;;;;;;4929215;24;20524;-92
2021/12/19 07:25:58;;;;;;;27.57;10.73;;;1.20;99.90;;;;;;4820951;29;21134;-90
2021/12/19 07:28:23;;;;;;;25.23;9.90;;;1.30;99.90;;;;;;4837547;29;20219;-91
2021/12/19 07:30:49;;;;;;;27.50;11.20;;;1.20;99.90;;;;;;4838563;29;20912;-92
2021/12/19 07:33:17;;;;;;;25.33;11.73;;;1.20;99.90;;;;;;4825997;29;21054;-90
2021/12/19 07:35:47;;;;;;;29.13;10.00;;;1.20;99.90;;;;;;4824367;29;20497;-91
2021/12/19 07:38:19;;;;;;;26.57;9.50;;;1.30;99.90;;;;;;4822785;29;20474;-91
2021/12/19 07:40:47;;;;;;;22.50;10.27;;;1.10;99.90;;;;;;4829873;29;20840;-90
2021/12/19 07:43:14;;;;;;;25.83;11.47;;;1.20;99.90;;;;;;4821206;29;20462;-91
2021/12/19 07:45:40;;;;;;;32.40;10.43;;;1.20;99.90;;;;;;4821926;29;20498;-95
2021/12/19 07:48:06;;;;;;;25.83;11.07;;;1.20;99.90;;;;;;4805082;29;20463;-95
2021/12/19 07:50:46;;;;;;;32.30;13.03;;;1.20;99.90;;;;;;4837457;29;21072;-94
2021/12/19 07:53:12;;;;;;;24.23;9.37;;;1.30;99.90;;;;;;4822705;29;20199;-95
2021/12/19 07:55:37;;;;;;;21.90;9.63;;;1.30;99.90;;;;;;4821565;29;20502;-93
2021/12/19 07:58:03;;;;;;;21.27;11.23;;;1.30;99.90;;;;;;4820832;29;20207;-95
2021/12/19 08:00:29;;;;;;;27.50;10.27;;;1.30;99.90;;;;;;4819336;29;20203;-95
2021/12/19 08:02:55;;;;;;;21.83;10.03;;;1.40;99.90;;;;;;4825841;29;20448;-95
2021/12/19 08:05:21;;;;;;;21.73;9.83;;;1.30;99.90;;;;;;4815588;29;20200;-95
2021/12/19 08:07:49;;;;;;;22.10;9.97;;;1.40;99.90;;;;;;4844154;29;20198;-96
2021/12/19 08:12:58;;;;;;;20.80;9.50;;;1.30;99.90;;;;;;4849735;29;20471;-95
2021/12/19 08:15:24;;;;;;;20.40;9.33;;;1.30;99.90;;;;;;4840737;29;20506;-96
2021/12/19 08:17:50;;;;;;;21.27;10.37;;;1.30;99.90;;;;;;4825400;29;20451;-94
2021/12/19 08:20:17;;;;;;;23.40;10.10;;;1.30;99.90;;;;;;4833627;29;20214;-94
2021/12/19 08:22:45;;;;;;;22.10;9.90;;;1.40;99.90;;;;;;4821618;29;20598;-94
2021/12/19 08:25:13;;;;;;;25.23;10.30;;;1.40;99.90;;;;;;4833021;29;20955;-94
2021/12/19 08:27:39;;;;;;;25.03;11.50;;;1.50;99.90;;;;;;4833458;29;20465;-95
2021/12/19 08:30:08;;;;;;;20.07;10.07;;;1.40;99.90;;;;;;4825340;29;20466;-94
2021/12/19 08:32:35;;;;;;;17.60;8.87;;;1.40;99.90;;;;;;4836792;29;20840;-94
2021/12/19 08:35:00;;;;;;;19.20;9.47;;;1.30;99.90;;;;;;4833260;29;20483;-93
2021/12/19 08:37:29;;;;;;;18.87;8.70;;;1.30;99.90;;;;;;4832309;29;20563;-94
2021/12/19 08:39:55;;;;;;;17.53;7.90;;;1.30;99.90;;;;;;4817247;29;20231;-93
2021/12/19 08:42:21;;;;;;;18.93;8.97;;;1.30;99.90;;;;;;4818200;29;20464;-96
2021/12/19 08:44:47;;;;;;;17.43;8.70;;;1.40;99.90;;;;;;4819098;29;20713;-96
2021/12/19 08:47:13;;;;;;;16.90;7.40;;;1.50;99.90;;;;;;4818475;29;20203;-95
2021/12/19 08:49:40;;;;;;;15.20;7.87;;;1.60;99.90;;;;;;4835261;29;20799;-93
2021/12/19 08:52:06;;;;;;;14.50;7.30;;;1.50;99.90;;;;;;4813628;29;20227;-94
2021/12/19 08:54:33;;;;;;;19.20;9.17;;;1.60;99.90;;;;;;4817625;29;20534;-94
2021/12/19 08:56:58;;;;;;;17.13;8.73;;;1.50;99.90;;;;;;4821412;29;20447;-95
2021/12/19 08:59:26;;;;;;;16.13;7.67;;;1.40;99.90;;;;;;4827989;29;20552;-95
2021/12/19 09:01:57;;;;;;;15.10;7.27;;;1.30;99.90;;;;;;4827116;29;20197;-96
2021/12/19 09:04:23;;;;;;;12.83;7.67;;;1.30;99.90;;;;;;4835839;29;20760;-96
2021/12/19 09:06:49;;;;;;;17.80;8.37;;;1.30;99.90;;;;;;4837123;29;20467;-94
2021/12/19 09:09:15;;;;;;;15.47;8.33;;;1.40;99.90;;;;;;4838421;29;20467;-95
2021/12/19 09:11:44;;;;;;;18.93;8.60;;;1.50;99.90;;;;;;4834532;29;20190;-96
2021/12/19 09:14:10;;;;;;;16.60;7.47;;;1.40;99.90;;;;;;4826472;29;20918;-95
2021/12/19 09:16:36;;;;;;;16.20;7.73;;;1.40;99.90;;;;;;4817638;29;20486;-95
2021/12/19 09:19:02;;;;;;;17.77;8.97;;;1.50;99.90;;;;;;4821466;29;20301;-94
2021/12/19 09:21:28;;;;;;;15.43;7.70;;;1.60;99.90;;;;;;4842901;29;20483;-95
2021/12/19 09:23:54;;;;;;;17.40;8.40;;;1.50;99.90;;;;;;4828760;29;20769;-96
2021/12/19 09:26:21;;;;;;;17.63;7.40;;;1.50;99.90;;;;;;4858311;29;20287;-96
2021/12/19 09:28:47;;;;;;;10.50;5.40;;;1.40;99.90;;;;;;4827093;29;20251;-96
2021/12/19 09:31:14;;;;;;;13.00;6.50;;;1.50;99.90;;;;;;4836493;29;20455;-96
2021/12/19 09:33:44;;;;;;;13.90;6.50;;;1.40;99.90;;;;;;4854029;29;20455;-95
2021/12/19 09:36:13;;;;;;;14.43;6.70;;;1.20;99.90;;;;;;4961263;24;20518;-95
2021/12/19 09:38:41;;;;;;;11.83;6.40;;;1.20;99.90;;;;;;4883495;29;20468;-95
2021/12/19 09:41:16;;;;;;;14.53;6.53;;;1.10;99.90;;;;;;4878913;29;22301;-95
2021/12/19 09:43:51;;;;;;;15.03;7.30;;;1.20;99.90;;;;;;4877382;29;20468;-96
2021/12/19 09:46:20;;;;;;;13.23;6.70;;;1.30;99.90;;;;;;4883026;29;20454;-96
2021/12/19 09:48:48;;;;;;;12.97;7.00;;;1.40;99.90;;;;;;4856982;29;20462;-95
2021/12/19 09:51:15;;;;;;;14.63;7.60;;;1.60;99.90;;;;;;4852005;29;20442;-95
2021/12/19 09:53:42;;;;;;;10.57;5.37;;;1.70;99.90;;;;;;4865508;29;20464;-94
2021/12/19 09:56:08;;;;;;;9.70;6.50;;;1.60;99.90;;;;;;4867907;29;20490;-96
2021/12/19 09:58:38;;;;;;;12.90;7.00;;;1.70;99.90;;;;;;4861667;29;20490;-95
2021/12/19 10:01:08;;;;;;;14.60;7.80;;;1.70;99.90;;;;;;4862634;29;20620;-95
2021/12/19 10:03:35;;;;;;;12.03;6.03;;;1.80;99.90;;;;;;4850690;29;20495;-90
2021/12/19 10:06:25;;;;;;;14.73;8.00;;;1.70;99.90;;;;;;4861505;29;20516;-93
2021/12/19 10:09:12;;;;;;;9.80;5.73;;;1.80;99.90;;;;;;4849561;29;20460;-92
2021/12/19 10:14:30;;;;;;;13.57;6.40;;;1.80;99.90;;;;;;4861837;29;20511;-90
2021/12/19 10:16:58;;;;;;;12.37;7.10;;;1.80;99.90;;;;;;4859745;29;20529;-89
2021/12/19 10:19:44;;;;;;;13.30;5.93;;;1.80;99.90;;;;;;4840229;29;20468;-90
2021/12/19 10:22:33;;;;;;;18.27;13.37;;;1.80;99.90;;;;;;4838158;29;20446;-91
2021/12/19 10:25:20;;;;;;;5.40;3.70;;;2.10;99.90;;;;;;4843470;29;20442;-95
2021/12/19 10:27:56;;;;;;;6.90;4.67;;;2.10;99.90;;;;;;4859761;29;20450;-92
2021/12/19 10:30:29;;;;;;;9.10;4.97;;;1.90;99.90;;;;;;4861137;29;21807;-92
2021/12/19 10:33:12;;;;;;;7.97;4.97;;;1.80;99.90;;;;;;4862396;29;20491;-92
2021/12/19 10:35:53;;;;;;;10.27;5.17;;;1.60;99.90;;;;;;4860302;29;20506;-92
2021/12/19 10:38:32;;;;;;;8.60;4.90;;;1.70;99.90;;;;;;4863899;29;20588;-93
2021/12/19 10:41:17;;;;;;;9.27;5.30;;;1.80;99.90;;;;;;4856037;29;20468;-91
2021/12/19 10:43:46;;;;;;;7.70;4.23;;;1.60;99.90;;;;;;4841787;29;20458;-93
2021/12/19 10:46:11;;;;;;;9.10;5.73;;;1.50;99.90;;;;;;4846482;29;21053;-94
2021/12/19 10:48:44;;;;;;;9.23;4.90;;;1.60;99.90;;;;;;4844084;29;20478;-94
2021/12/19 10:51:16;;;;;;;8.90;4.47;;;1.80;99.90;;;;;;4844920;29;20473;-92
2021/12/19 10:53:45;;;;;;;6.87;4.27;;;1.80;99.90;;;;;;4855614;29;20487;-93
2021/12/19 10:56:20;;;;;;;5.30;3.43;;;1.90;99.90;;;;;;4846166;29;20466;-92
2021/12/19 10:58:53;;;;;;;6.83;4.33;;;1.80;99.90;;;;;;4862919;29;20563;-93
2021/12/19 11:01:32;;;;;;;6.77;4.50;;;1.90;99.90;;;;;;4859616;29;20467;-93
2021/12/19 11:03:59;;;;;;;8.27;4.37;;;2.00;99.90;;;;;;4845621;29;20521;-93
2021/12/19 11:06:29;;;;;;;9.23;5.50;;;2.00;99.90;;;;;;4854159;29;20488;-91
2021/12/19 11:08:58;;;;;;;9.20;4.97;;;1.70;99.90;;;;;;4864550;29;20458;-91
2021/12/19 11:11:42;;;;;;;10.80;6.07;;;1.80;99.90;;;;;;4852656;29;20466;-92
2021/12/19 11:14:17;;;;;;;14.60;7.07;;;2.00;99.90;;;;;;4854578;29;20934;-92
2021/12/19 11:16:43;;;;;;;13.60;6.10;;;2.00;99.90;;;;;;4861617;29;20448;-92
2021/12/19 11:19:10;;;;;;;11.37;6.20;;;1.90;99.90;;;;;;4861132;29;20441;-91
2021/12/19 11:21:37;;;;;;;11.13;6.20;;;2.00;99.90;;;;;;4849790;29;20476;-92
2021/12/19 11:24:06;;;;;;;12.63;7.27;;;2.10;99.90;;;;;;4863252;29;20463;-93
2021/12/19 11:26:33;;;;;;;14.73;8.37;;;2.10;99.90;;;;;;4847733;29;20474;-92
2021/12/19 11:29:00;;;;;;;13.07;7.80;;;2.10;99.90;;;;;;4852529;29;20842;-92
2021/12/19 11:31:27;;;;;;;16.60;9.90;;;2.10;99.90;;;;;;4860379;29;20512;-92
2021/12/19 11:34:12;;;;;;;29.07;13.17;;;2.20;99.90;;;;;;4850804;29;20446;-92
2021/12/19 11:36:42;;;;;;;26.60;11.67;;;2.10;99.90;;;;;;4849311;29;21138;-92
2021/12/19 11:39:09;;;;;;;15.53;7.37;;;2.10;99.90;;;;;;4861647;29;20460;-94
2021/12/19 11:41:35;;;;;;;15.07;7.43;;;1.90;99.90;;;;;;4851732;29;20455;-93
2021/12/19 11:44:07;;;;;;;19.47;8.17;;;1.80;99.90;;;;;;4850561;29;20459;-92
2021/12/19 11:47:04;;;;;;;15.97;8.23;;;1.70;99.90;;;;;;4849582;29;20475;-92
2021/12/19 11:49:31;;;;;;;21.00;8.33;;;1.80;99.90;;;;;;4850826;29;20443;-91
2021/12/19 11:52:24;;;;;;;10.63;5.30;;;1.80;99.90;;;;;;4855456;29;20451;-93
2021/12/19 11:55:11;;;;;;;9.17;5.13;;;1.80;99.90;;;;;;4853404;29;20487;-93
2021/12/19 11:57:37;;;;;;;14.40;6.63;;;1.90;99.90;;;;;;4864047;29;20542;-92
2021/12/19 12:00:32;;;;;;;10.43;6.20;;;1.90;99.90;;;;;;4845280;29;20985;-92
2021/12/19 12:03:12;;;;;;;7.80;5.57;;;1.80;99.90;;;;;;4849579;29;20210;-87
2021/12/19 12:05:47;;;;;;;12.87;6.27;;;1.80;99.90;;;;;;4865914;29;20903;-92
2021/12/19 12:08:15;;;;;;;10.90;6.47;;;1.70;99.90;;;;;;4866395;29;20881;-93
2021/12/19 12:10:49;;;;;;;9.93;5.77;;;1.80;99.90;;;;;;4853806;29;20849;-93
2021/12/19 12:13:35;;;;;;;12.83;6.70;;;2.00;99.90;;;;;;4869715;29;20585;-93
2021/12/19 12:16:22;;;;;;;13.70;7.50;;;1.80;99.90;;;;;;4854467;29;20490;-93
2021/12/19 12:18:55;;;;;;;14.60;7.23;;;1.90;99.90;;;;;;4868264;29;20463;-93
2021/12/19 12:21:27;;;;;;;14.53;6.40;;;2.00;99.90;;;;;;4855204;29;20471;-93
2021/12/19 12:23:56;;;;;;;16.63;8.40;;;2.10;99.90;;;;;;4856457;29;20517;-94
2021/12/19 12:26:30;;;;;;;20.83;9.73;;;2.20;99.90;;;;;;4855588;29;20721;-92
2021/12/19 12:29:00;;;;;;;15.10;8.40;;;2.20;99.90;;;;;;4865095;29;20746;-93
2021/12/19 12:31:27;;;;;;;18.60;8.60;;;2.20;99.90;;;;;;4861171;29;20500;-91
2021/12/19 12:33:55;;;;;;;19.30;8.23;;;2.10;99.90;;;;;;4852909;29;20512;-92
2021/12/19 12:36:24;;;;;;;13.10;5.63;;;2.00;99.90;;;;;;4851617;29;20460;-90
2021/12/19 12:38:52;;;;;;;10.33;5.77;;;2.00;99.90;;;;;;4853985;29;20480;-93
2021/12/19 12:42:12;;;;;;;12.73;6.30;;;2.00;99.90;;;;;;4849825;29;20468;-92
2021/12/19 12:44:16;;;;;;;9.60;5.97;;;2.00;99.90;;;;;;4853466;29;20478;-94
2021/12/19 12:46:42;;;;;;;11.70;6.17;;;1.90;99.90;;;;;;4850585;29;20517;-93
2021/12/19 12:49:16;;;;;;;11.13;6.20;;;1.80;99.90;;;;;;4855833;29;20535;-93
2021/12/19 12:51:58;;;;;;;23.80;10.53;;;1.70;99.90;;;;;;4850273;29;20470;-93
2021/12/19 12:54:34;;;;;;;27.90;11.90;;;1.70;99.90;;;;;;4855060;29;21199;-94
2021/12/19 12:57:02;;;;;;;25.80;11.50;;;1.90;99.90;;;;;;4852114;29;20455;-94
2021/12/19 12:59:33;;;;;;;20.90;10.33;;;2.00;99.90;;;;;;4850408;29;20864;-92
2021/12/19 13:04:41;;;;;;;20.67;11.10;;;2.20;99.90;;;;;;4864667;29;20647;-92
2021/12/19 13:07:07;;;;;;;26.13;10.83;;;2.20;99.90;;;;;;4846969;29;20785;-92
2021/12/19 13:09:48;;;;;;;43.93;11.50;;;2.10;99.90;;;;;;4859337;29;20566;-95
2021/12/19 13:12:20;;;;;;;33.00;10.80;;;2.00;99.90;;;;;;4847379;29;20451;-92
2021/12/19 13:15:02;;;;;;;33.30;12.17;;;1.90;99.90;;;;;;4846941;29;20511;-90
2021/12/19 13:17:29;;;;;;;30.03;13.53;;;2.00;99.90;;;;;;4859663;29;20879;-88
2021/12/19 13:19:57;;;;;;;37.83;18.07;;;2.40;99.90;;;;;;4860061;29;20452;-90
2021/12/19 13:22:38;;;;;;;29.60;15.60;;;2.40;99.90;;;;;;4848885;29;20477;-90
2021/12/19 13:25:40;;;;;;;26.83;10.67;;;2.30;99.90;;;;;;4847632;29;20454;-89
2021/12/19 13:28:12;;;;;;;25.77;11.53;;;2.20;99.90;;;;;;4851092;29;20486;-92
2021/12/19 13:30:39;;;;;;;24.80;11.20;;;2.00;99.90;;;;;;4848101;29;20809;-91
2021/12/19 13:33:13;;;;;;;22.03;10.70;;;2.10;99.90;;;;;;4847685;29;20472;-90
2021/12/19 13:35:47;;;;;;;22.30;10.77;;;2.10;99.90;;;;;;4856204;29;20489;-90
2021/12/19 13:38:21;;;;;;;24.83;11.60;;;2.20;99.90;;;;;;4849589;29;20883;-90
2021/12/19 13:41:06;;;;;;;18.63;9.00;;;2.00;99.90;;;;;;4859289;29;20591;-90
2021/12/19 13:43:34;;;;;;;27.90;10.77;;;2.00;99.90;;;;;;4859017;29;20459;-90
2021/12/19 13:46:04;;;;;;;25.57;11.73;;;2.10;99.90;;;;;;4860474;29;20886;-90
2021/12/19 13:48:30;;;;;;;19.30;9.67;;;2.00;99.90;;;;;;4853914;29;20905;-91
2021/12/19 13:51:11;;;;;;;31.97;10.80;;;2.00;99.90;;;;;;4845029;29;20800;-91
2021/12/19 13:53:40;;;;;;;25.43;10.73;;;2.00;99.90;;;;;;4849381;29;20193;-90
2021/12/19 13:56:07;;;;;;;20.17;10.50;;;2.00;99.90;;;;;;4846525;29;20515;-93
2021/12/19 13:58:52;;;;;;;31.67;11.77;;;1.90;99.90;;;;;;4851005;29;20963;-91
2021/12/19 14:01:22;;;;;;;24.50;11.87;;;1.90;99.90;;;;;;4846807;29;20470;-92
2021/12/19 14:03:51;;;;;;;31.37;11.83;;;2.00;99.90;;;;;;4859119;29;20461;-92
2021/12/19 14:06:24;;;;;;;18.20;9.57;;;1.80;99.90;;;;;;4847010;29;20454;-91
2021/12/19 14:08:53;;;;;;;21.20;10.17;;;1.80;99.90;;;;;;4846006;29;20820;-93
2021/12/19 14:11:21;;;;;;;30.33;11.33;;;1.90;99.90;;;;;;4847140;29;20461;-91
2021/12/19 14:14:23;;;;;;;27.63;10.23;;;1.90;99.90;;;;;;4839526;29;20537;-93